Flight Track Log - Related Links

Times and Time Zones

All times are in EDT time to prevent confusion due to time zone crossing. See the AAY893 flight status page for this flight to view local times or setup timezone preferences in your user account.

Time Position Orientation Groundspeed Altitude Reporting Facility
EDT Latitude Longitude Course Direction KTS MPH feet Rate Location/Type
Thu 07:57:27 PM 41.2819 -80.7244 202° Southwest 164 189 2,800  Level Cleveland Center
Thu 07:58:29 PM 41.2250 -80.7550 202° Southwest 237 273 4,700 2,129 Climbing Cleveland Center
Thu 07:59:31 PM 41.1561 -80.7844 198° South 252 290 7,200 2,661 Climbing Cleveland Center
Thu 08:00:33 PM 41.0722 -80.8156 196° South 278 320 10,200 2,177 Climbing Cleveland Center
Thu 08:01:35 PM 40.9906 -80.8447 195° South 298 343 11,700 1,548 Climbing Cleveland Center
Thu 08:02:37 PM 40.8914 -80.8811 196° South 362 417 13,400 2,032 Climbing Cleveland Center
Thu 08:03:39 PM 40.7881 -80.9183 195° South 384 442 15,900 2,256 Climbing Cleveland Center
Thu 08:04:42 PM 40.6619 -80.9647 196° South 392 451 18,100 1,968 Climbing Cleveland Center
Thu 08:05:44 PM 40.5500 -81.0039 195° South 412 474 20,000 1,790 Climbing Cleveland Center
Thu 08:06:46 PM 40.4369 -81.0447 195° South 418 481 21,800 1,742 Climbing Cleveland Center
Thu 08:07:48 PM 40.3228 -81.0867 196° South 429 494 23,600 1,790 Climbing Cleveland Center
Thu 08:08:50 PM 40.2075 -81.1275 195° South 430 495 25,500 1,935 Climbing Cleveland Center
Thu 08:09:52 PM 40.0708 -81.1753 195° South 429 494 27,600 1,839 Climbing Cleveland Center
Thu 08:10:54 PM 39.9583 -81.2150 195° South 421 484 29,300 1,161 Climbing Cleveland Center
Thu 08:11:56 PM 39.8492 -81.2533 195° South 411 473 30,000 576 Climbing Cleveland Center
Thu 08:12:59 PM 39.7372 -81.2936 195° South 413 475 30,500 768 Climbing Cleveland Center
Thu 08:14:01 PM 39.6261 -81.3317 195° South 413 475 31,600 726 Climbing Cleveland Center
Thu 08:15:03 PM 39.5117 -81.3519 188° South 412 474 32,000 188 Climbing Cleveland Center
Thu 08:16:09 PM 39.3867 -81.3681 186° South 412 474 32,000  Level Indianapolis Center
Thu 08:17:10 PM 39.2742 -81.3831 186° South 410 472 32,000  Level Indianapolis Center
Thu 08:18:12 PM 39.1394 -81.4017 186° South 408 470 32,000  Level Indianapolis Center
Thu 08:19:14 PM 39.0264 -81.4167 186° South 408 470 32,000  Level Indianapolis Center
Thu 08:20:16 PM 38.9128 -81.4319 186° South 408 470 32,000  Level Indianapolis Center
Thu 08:21:18 PM 38.7967 -81.4472 186° South 411 473 32,000  Level Indianapolis Center
Thu 08:22:19 PM 38.6753 -81.4650 187° South 412 474 32,000  Level Indianapolis Center
Thu 08:23:21 PM 38.5544 -81.4797 185° South 419 482 32,000  Level Indianapolis Center
Thu 08:24:23 PM 38.4372 -81.4958 186° South 419 482 32,000  Level Indianapolis Center
Thu 08:25:25 PM 38.3189 -81.5117 186° South 420 483 32,000  Level Indianapolis Center
Thu 08:26:27 PM 38.1994 -81.5272 186° South 426 490 32,000  Level Indianapolis Center
Thu 08:27:28 PM 38.0800 -81.5436 186° South 427 491 32,000  Level Indianapolis Center
Thu 08:28:30 PM 37.9606 -81.5586 186° South 427 491 32,000  Level Indianapolis Center
Thu 08:29:32 PM 37.8239 -81.5769 186° South 428 493 32,000  Level Indianapolis Center
Thu 08:30:34 PM 37.7044 -81.5936 186° South 428 493 32,000  Level Indianapolis Center
Thu 08:31:35 PM 37.5850 -81.6081 185° South 428 493 32,000  Level Indianapolis Center
Thu 08:32:37 PM 37.4656 -81.6236 186° South 428 493 32,000  Level Indianapolis Center
Thu 08:33:39 PM 37.3467 -81.6386 186° South 428 493 32,000  Level Indianapolis Center
Thu 08:34:40 PM 37.2081 -81.6567 186° South 428 493 32,000  Level Indianapolis Center
Thu 08:35:42 PM 37.0878 -81.6711 185° South 428 493 32,000  Level Indianapolis Center
Thu 08:36:44 PM 36.9683 -81.6872 186° South 428 493 32,000  Level Indianapolis Center
Thu 08:37:45 PM 36.8489 -81.7017 186° South 428 493 32,000  Level Indianapolis Center
Thu 08:38:47 PM 36.7289 -81.7175 186° South 429 494 32,000  Level Indianapolis Center
Thu 08:39:49 PM 36.6069 -81.7325 186° South 430 495 32,000  Level Indianapolis Center
Thu 08:40:51 PM 36.4872 -81.7475 186° South 431 496 32,000  Level Indianapolis Center
Thu 08:41:52 PM 36.3697 -81.7614 185° South 427 491 32,000  Level Indianapolis Center
Thu 08:42:54 PM 36.2339 -81.7800 186° South 421 484 32,000  Level Indianapolis Center
Thu 08:43:56 PM 36.1164 -81.7947 186° South 421 484 32,000  Level Indianapolis Center
Thu 08:45:13 PM 35.9797 -81.8167 187° South 423 487 32,000  Level Atlanta Center
Thu 08:46:13 PM 35.8592 -81.8328 186° South 423 487 32,000  Level Atlanta Center
Thu 08:47:13 PM 35.7403 -81.8436 184° South 423 487 32,000 250 Level Atlanta Center
Thu 08:48:13 PM 35.6239 -81.8594 186° South 423 487 32,500 600 Climbing Atlanta Center
Thu 08:49:13 PM 35.5053 -81.8753 186° South 423 487 33,200 650 Climbing Atlanta Center
Thu 08:50:13 PM 35.3886 -81.8911 186° South 423 487 33,800 400 Climbing Atlanta Center
Thu 08:51:13 PM 35.2700 -81.9044 185° South 423 487 34,000 100 Climbing Atlanta Center
Thu 08:52:13 PM 35.1533 -81.9175 185° South 423 487 34,000  Level Atlanta Center
Thu 08:53:13 PM 35.0347 -81.9333 186° South 423 487 34,000  Level Atlanta Center
Thu 08:54:13 PM 34.9183 -81.9642 192° South 423 487 34,000  Level Atlanta Center
Thu 08:55:13 PM 34.8042 -81.9947 192° South 423 487 34,000  Level Atlanta Center
Thu 08:56:13 PM 34.6919 -82.0278 194° South 428 493 34,000  Level Atlanta Center
Thu 08:57:13 PM 34.5756 -82.0608 193° South 428 493 34,000  Level Atlanta Center
Thu 08:58:13 PM 34.4592 -82.0964 194° South 428 493 34,000  Level Atlanta Center
Thu 08:59:13 PM 34.3450 -82.1292 193° South 428 493 34,000  Level Atlanta Center
Thu 09:00:13 PM 34.2286 -82.1544 190° South 428 493 34,000  Level Atlanta Center
Thu 09:01:13 PM 34.1056 -82.1572 181° South 434 499 34,000  Level Atlanta Center
Thu 09:02:13 PM 33.9822 -82.1575 180° South 441 507 34,000  Level Atlanta Center
Thu 09:03:13 PM 33.8611 -82.1575 180° South 441 507 34,000  Level Atlanta Center
Thu 09:04:13 PM 33.7361 -82.1603 181° South 441 507 34,000  Level Atlanta Center
Thu 09:05:13 PM 33.6106 -82.1506 176° South 441 507 34,000  Level Atlanta Center
Thu 09:06:13 PM 33.4789 -82.1361 175° South 441 507 34,000  Level Atlanta Center
Thu 09:07:13 PM 33.3556 -82.1239 175° South 441 507 34,000  Level Atlanta Center
Thu 09:08:13 PM 33.2322 -82.1092 174° South 441 507 34,000  Level Atlanta Center
Thu 09:09:13 PM 33.1108 -82.0944 174° South 447 514 34,000  Level Atlanta Center
Thu 09:10:13 PM 32.9958 -82.0822 175° South 447 514 34,000  Level Atlanta Center
Thu 09:12:16 PM 32.7483 -82.0528 174° South 431 496 34,000  Level Jacksonville Center
Thu 09:13:16 PM 32.6250 -82.0417 176° South 442 509 34,000  Level Jacksonville Center
Thu 09:14:16 PM 32.5017 -82.0256 174° South 442 509 34,000  Level Jacksonville Center
Thu 09:15:16 PM 32.3703 -82.0119 175° South 442 509 34,000  Level Jacksonville Center
Thu 09:16:16 PM 32.2511 -82.0181 182° South 431 496 34,000  Level Jacksonville Center
Thu 09:17:16 PM 32.1303 -82.0389 188° South 437 503 34,000  Level Jacksonville Center
Thu 09:18:16 PM 32.0092 -82.0522 185° South 437 503 34,000  Level Jacksonville Center
Thu 09:19:16 PM 31.9008 -82.0678 187° South 445 512 34,000  Level Jacksonville Center
Thu 09:20:16 PM 31.7694 -82.0836 186° South 439 505 34,000  Level Jacksonville Center
Thu 09:21:16 PM 31.6525 -82.0994 187° South 438 504 34,000  Level Jacksonville Center
Thu 09:22:16 PM 31.5419 -82.1150 187° South 438 504 34,000  Level Jacksonville Center
Thu 09:23:16 PM 31.4189 -82.1306 186° South 443 510 34,000  Level Jacksonville Center
Thu 09:24:16 PM 31.3000 -82.1461 186° South 443 510 34,000  Level Jacksonville Center
Thu 09:25:16 PM 31.1789 -82.1617 186° South 443 510 34,000  Level Jacksonville Center
Thu 09:26:16 PM 31.0619 -82.1747 185° South 443 510 34,000  Level Jacksonville Center
Thu 09:27:16 PM 30.9369 -82.1925 187° South 443 510 34,000  Level Jacksonville Center
Thu 09:28:16 PM 30.8158 -82.2081 186° South 443 510 34,000  Level Jacksonville Center
Thu 09:29:16 PM 30.6969 -82.2208 185° South 443 510 34,000  Level Jacksonville Center
Thu 09:30:16 PM 30.5758 -82.2386 187° South 443 510 34,000  Level Jacksonville Center
Thu 09:31:16 PM 30.4425 -82.2517 185° South 443 510 34,000  Level Jacksonville Center
Thu 09:32:16 PM 30.3192 -82.2644 185° South 444 511 34,000 -400 Level Jacksonville Center
Thu 09:33:16 PM 30.1961 -82.2822 187° South 444 511 33,200 -900 Descending Jacksonville Center
Thu 09:34:16 PM 30.0708 -82.2972 186° South 444 511 32,200 -1,300 Descending Jacksonville Center
Thu 09:35:16 PM 29.9458 -82.3172 188° South 444 511 30,600 -1,600 Descending Jacksonville Center
Thu 09:36:16 PM 29.8228 -82.3322 186° South 444 511 29,000 -1,450 Descending Jacksonville Center
Thu 09:37:16 PM 29.7119 -82.3425 185° South 444 511 27,700 -1,450 Descending Jacksonville Center
Thu 09:38:16 PM 29.5869 -82.3575 186° South 444 511 26,100 -1,350 Descending Jacksonville Center
Thu 09:39:16 PM 29.4617 -82.3464 176° South 444 511 25,000 -1,050 Descending Jacksonville Center
Thu 09:40:16 PM 29.3383 -82.3303 174° South 444 511 24,000 -1,500 Descending Jacksonville Center
Thu 09:41:16 PM 29.2192 -82.3167 174° South 444 511 22,000 -2,250 Descending Jacksonville Center
Thu 09:42:16 PM 29.1003 -82.3033 174° South 439 505 19,500 -2,400 Descending Jacksonville Center
Thu 09:43:16 PM 28.9894 -82.2872 173° South 421 484 17,200 -2,500 Descending Jacksonville Center
Thu 09:44:16 PM 28.8706 -82.2786 176° South 408 470 14,500 -1,574 Descending Jacksonville Center
Thu 09:46:19 PM 28.6733 -82.2586 175° South 357 411 12,400 -1,043 Descending Miami Center
Thu 09:47:20 PM 28.5764 -82.2597 181° South 350 403 11,300 -1,119 Descending Miami Center
Thu 09:48:17 PM 28.5167 -82.3667 238° Southwest 364 419 10,200 -585 Descending Tampa TRACON
Thu 09:49:23 PM 28.5000 -82.4667 259° West 339 390 10,100 -53 Descending Tampa TRACON
Thu 09:50:11 PM 28.4667 -82.5500 246° West 328 377 10,100  Level Tampa TRACON
Thu 09:51:11 PM 28.4333 -82.6500 249° West 331 381 10,100  Level Tampa TRACON
Thu 09:52:11 PM 28.3833 -82.7333 236° Southwest 307 353 10,100 -421 Level Tampa TRACON
Thu 09:53:05 PM 28.3333 -82.7833 221° Southwest 296 341 9,300 -1,105 Descending Tampa TRACON
Thu 09:54:05 PM 28.2500 -82.8000 190° South 276 318 8,000 -1,200 Descending Tampa TRACON
Thu 09:55:05 PM 28.1667 -82.8000 180° South 283 326 6,900 -1,263 Descending Tampa TRACON
Thu 09:55:59 PM 28.1000 -82.8167 192° South 257 296 5,600 -1,474 Descending Tampa TRACON
Thu 09:56:59 PM 28.0333 -82.8167 180° South 232 267 4,100 -1,550 Descending Tampa TRACON
Thu 09:57:59 PM 27.9667 -82.8000 168° South 223 257 2,500 -1,041 Descending Tampa TRACON
Thu 09:59:00 PM 27.9167 -82.8000 180° South 227 261 2,000 -298 Descending Tampa TRACON
Thu 10:00:00 PM 27.8500 -82.7833 168° South 197 227 1,900 -273 Descending Tampa TRACON
Thu 10:01:12 PM 27.8333 -82.7333 111° Southeast 157 181 1,400 -429 Descending Tampa TRACON
Thu 10:02:06 PM 27.8500 -82.6833 69° East 148 170 1,000 -526 Descending Tampa TRACON
Thu 10:03:06 PM 27.8833 -82.6833 360° North 128 147 400 -600 Descending Tampa TRACON

Login

Don't have an account? Register now (free) for customized features, flight alerts, and more!